Time;durP1;ratioP1;P1;durP2;ratioP2;P2;SDS_P1;SDS_P2;PMS_P1;PMS_P2;Temp;Humidity;BMP_temperature;BMP_pressure;BME280_temperature;BME280_humidity;BME280_pressure;Samples;Min_cycle;Max_cycle;Signal;HPM_P1;HPM_P2
2021/01/19 00:01:26;;;;;;;15.10;8.08;;;;;;;;;;1779172;80;21159;-83
2021/01/19 00:03:52;;;;;;;34.30;16.20;;;;;;;;;;1777852;80;21146;-83
2021/01/19 00:06:18;;;;;;;49.73;17.85;;;;;;;;;;1779896;80;21218;-84
2021/01/19 00:08:45;;;;;;;21.97;10.30;;;;;;;;;;1753175;80;21165;-82
2021/01/19 00:11:11;;;;;;;28.45;12.28;;;;;;;;;;1780594;80;21144;-83
2021/01/19 00:13:37;;;;;;;25.15;11.33;;;;;;;;;;1772606;80;21147;-85
2021/01/19 00:16:04;;;;;;;23.95;9.70;;;;;;;;;;1750384;80;21169;-83
2021/01/19 00:18:30;;;;;;;32.08;14.40;;;;;;;;;;1787670;79;21136;-82
2021/01/19 00:20:56;;;;;;;48.33;13.80;;;;;;;;;;1780803;79;21102;-83
2021/01/19 00:23:22;;;;;;;36.28;13.70;;;;;;;;;;1784422;79;21129;-84
2021/01/19 00:25:49;;;;;;;21.42;10.53;;;;;;;;;;1808573;79;21592;-82
2021/01/19 00:28:15;;;;;;;40.17;13.03;;;;;;;;;;1777343;79;21132;-82
2021/01/19 00:30:42;;;;;;;28.05;11.05;;;;;;;;;;1781432;79;21119;-81
2021/01/19 00:33:09;;;;;;;36.30;14.55;;;;;;;;;;1783057;79;21120;-82
2021/01/19 00:35:35;;;;;;;18.92;8.10;;;;;;;;;;1780645;80;21160;-81
2021/01/19 00:38:02;;;;;;;23.60;7.95;;;;;;;;;;1780543;79;21119;-84
2021/01/19 00:40:28;;;;;;;41.37;15.65;;;;;;;;;;1779172;80;21142;-82
2021/01/19 00:42:54;;;;;;;26.55;12.30;;;;;;;;;;1777946;80;21191;-82
2021/01/19 00:45:20;;;;;;;13.20;6.70;;;;;;;;;;1779249;80;21286;-83
2021/01/19 00:47:47;;;;;;;36.63;13.20;;;;;;;;;;1780374;80;21150;-82
2021/01/19 00:50:13;;;;;;;6.75;4.80;;;;;;;;;;1785622;79;21147;-81
2021/01/19 00:52:39;;;;;;;19.35;8.48;;;;;;;;;;1786509;79;21522;-82
2021/01/19 00:55:07;;;;;;;19.90;9.20;;;;;;;;;;1791613;79;21159;-81
2021/01/19 00:57:33;;;;;;;12.37;6.70;;;;;;;;;;1792839;79;21125;-82
2021/01/19 01:00:00;;;;;;;28.17;13.62;;;;;;;;;;1811581;79;21553;-82
2021/01/19 01:02:26;;;;;;;27.70;12.90;;;;;;;;;;1807355;79;21168;-81
2021/01/19 01:04:52;;;;;;;20.92;8.20;;;;;;;;;;1805315;79;21129;-83
2021/01/19 01:07:19;;;;;;;20.12;9.10;;;;;;;;;;1809050;79;21134;-82
2021/01/19 01:09:45;;;;;;;30.50;11.15;;;;;;;;;;1778048;79;21627;-80
2021/01/19 01:12:11;;;;;;;33.60;12.45;;;;;;;;;;1790272;79;21104;-80
2021/01/19 01:14:37;;;;;;;31.25;14.23;;;;;;;;;;1784964;79;21139;-81
2021/01/19 01:17:03;;;;;;;35.10;12.07;;;;;;;;;;1793033;79;21130;-81
2021/01/19 01:19:29;;;;;;;34.30;14.23;;;;;;;;;;1785682;79;21134;-81
2021/01/19 01:21:58;;;;;;;38.88;13.13;;;;;;;;;;1758536;79;21160;-79
2021/01/19 01:24:24;;;;;;;25.15;9.85;;;;;;;;;;1803513;79;21212;-80
2021/01/19 01:26:52;;;;;;;27.82;12.25;;;;;;;;;;1812210;79;21114;-81
2021/01/19 01:29:18;;;;;;;41.20;15.75;;;;;;;;;;1809800;79;21566;-81
2021/01/19 01:31:44;;;;;;;12.65;7.87;;;;;;;;;;1808524;79;21125;-79
2021/01/19 01:34:10;;;;;;;29.20;13.30;;;;;;;;;;1786892;79;21141;-80
2021/01/19 01:36:40;;;;;;;48.78;17.92;;;;;;;;;;1775112;79;21145;-81
2021/01/19 01:39:06;;;;;;;33.15;8.68;;;;;;;;;;1803034;79;21121;-79
2021/01/19 01:41:32;;;;;;;27.65;10.75;;;;;;;;;;1781764;79;21131;-81
2021/01/19 01:44:01;;;;;;;35.20;12.07;;;;;;;;;;1792347;80;21588;-80
2021/01/19 01:46:26;;;;;;;42.53;14.55;;;;;;;;;;1785983;79;21250;-81
2021/01/19 01:48:52;;;;;;;35.78;11.93;;;;;;;;;;1789514;79;21159;-79
2021/01/19 01:51:19;;;;;;;34.85;15.23;;;;;;;;;;1765141;80;21169;-79
2021/01/19 01:53:45;;;;;;;38.35;13.95;;;;;;;;;;1755704;79;21134;-79
2021/01/19 01:56:11;;;;;;;29.27;11.40;;;;;;;;;;1791241;79;21724;-80
2021/01/19 01:58:37;;;;;;;26.48;12.43;;;;;;;;;;1795695;79;21128;-80
2021/01/19 02:01:04;;;;;;;35.90;14.30;;;;;;;;;;1780340;80;21158;-80
2021/01/19 02:03:30;;;;;;;29.00;9.98;;;;;;;;;;1780483;79;21153;-81
2021/01/19 02:05:56;;;;;;;29.48;10.85;;;;;;;;;;1791648;79;21565;-80
2021/01/19 02:08:43;;;;;;;12.75;6.70;;;;;;;;;;1788522;79;21134;-81
2021/01/19 02:11:26;;;;;;;19.57;6.97;;;;;;;;;;1800235;79;21169;-79
2021/01/19 02:14:03;;;;;;;22.60;9.30;;;;;;;;;;1809375;79;21568;-80
2021/01/19 02:16:32;;;;;;;22.58;8.88;;;;;;;;;;1809728;79;21137;-81
2021/01/19 02:19:00;;;;;;;24.45;11.38;;;;;;;;;;1807393;79;21149;-80
2021/01/19 02:21:45;;;;;;;21.77;11.33;;;;;;;;;;1808547;79;21137;-81
2021/01/19 02:24:12;;;;;;;26.10;10.75;;;;;;;;;;1812510;79;21106;-83
2021/01/19 02:26:55;;;;;;;15.48;7.95;;;;;;;;;;1794363;79;21140;-83
2021/01/19 02:29:35;;;;;;;25.12;11.63;;;;;;;;;;1753943;81;21154;-84
2021/01/19 02:32:25;;;;;;;23.70;11.30;;;;;;;;;;1799431;79;23062;-81
2021/01/19 02:34:56;;;;;;;19.48;9.30;;;;;;;;;;1792447;80;21133;-81
2021/01/19 02:37:33;;;;;;;17.02;8.50;;;;;;;;;;1790841;80;21287;-81
2021/01/19 02:40:03;;;;;;;18.25;8.53;;;;;;;;;;1793642;79;21124;-83
2021/01/19 02:42:47;;;;;;;17.90;7.65;;;;;;;;;;1795965;80;21113;-83
2021/01/19 02:45:13;;;;;;;25.27;10.55;;;;;;;;;;1795651;80;21141;-80
2021/01/19 02:47:39;;;;;;;15.53;5.55;;;;;;;;;;1795939;80;21136;-81
2021/01/19 02:50:07;;;;;;;31.93;11.95;;;;;;;;;;1801533;78;21512;-80
2021/01/19 02:52:33;;;;;;;14.98;8.03;;;;;;;;;;1828150;78;21125;-79
2021/01/19 02:55:00;;;;;;;26.37;13.08;;;;;;;;;;1828143;78;21549;-80
2021/01/19 02:57:46;;;;;;;29.23;9.48;;;;;;;;;;1827998;78;21180;-82
2021/01/19 03:00:13;;;;;;;40.05;14.85;;;;;;;;;;1826922;78;21333;-80
2021/01/19 03:02:40;;;;;;;28.60;11.33;;;;;;;;;;1828185;78;21149;-82
2021/01/19 03:05:07;;;;;;;21.42;10.43;;;;;;;;;;1798367;78;21199;-81
2021/01/19 03:07:34;;;;;;;26.77;9.65;;;;;;;;;;1828083;78;21726;-80
2021/01/19 03:10:00;;;;;;;17.40;7.53;;;;;;;;;;1828004;78;21113;-81
2021/01/19 03:12:27;;;;;;;33.92;12.55;;;;;;;;;;1802095;78;21706;-81
2021/01/19 03:14:53;;;;;;;25.37;10.72;;;;;;;;;;1796039;80;21132;-82
2021/01/19 03:17:20;;;;;;;22.13;10.18;;;;;;;;;;1795837;80;21136;-84
2021/01/19 03:19:46;;;;;;;27.32;10.93;;;;;;;;;;1795701;80;21152;-82
2021/01/19 03:22:12;;;;;;;27.02;10.78;;;;;;;;;;1795889;78;21125;-82
2021/01/19 03:24:38;;;;;;;26.68;10.53;;;;;;;;;;1796201;78;21533;-83
2021/01/19 03:27:05;;;;;;;28.32;12.80;;;;;;;;;;1795716;80;21137;-84
2021/01/19 03:29:31;;;;;;;26.90;8.68;;;;;;;;;;1795663;80;21145;-83
2021/01/19 03:31:57;;;;;;;26.80;12.18;;;;;;;;;;1789741;79;21105;-84
2021/01/19 03:34:24;;;;;;;18.52;8.13;;;;;;;;;;1787613;80;21144;-83
2021/01/19 03:36:50;;;;;;;19.77;7.22;;;;;;;;;;1787831;80;21155;-79
2021/01/19 03:39:16;;;;;;;25.97;10.35;;;;;;;;;;1787420;80;21149;-80
2021/01/19 03:41:42;;;;;;;29.65;13.83;;;;;;;;;;1787628;80;21144;-79
2021/01/19 03:44:08;;;;;;;19.23;8.55;;;;;;;;;;1792099;80;21094;-80
2021/01/19 03:46:35;;;;;;;25.62;11.43;;;;;;;;;;1792196;80;21106;-80
2021/01/19 03:49:01;;;;;;;24.10;10.90;;;;;;;;;;1792478;80;21149;-80
2021/01/19 03:51:27;;;;;;;32.55;14.73;;;;;;;;;;1792246;80;21142;-79
2021/01/19 03:53:53;;;;;;;27.10;11.88;;;;;;;;;;1791668;80;21739;-80
2021/01/19 03:56:20;;;;;;;27.22;13.40;;;;;;;;;;1792253;80;21138;-82
2021/01/19 03:58:46;;;;;;;36.38;14.03;;;;;;;;;;1792202;80;21597;-80
2021/01/19 04:01:12;;;;;;;31.75;11.80;;;;;;;;;;1803844;79;21136;-80
2021/01/19 04:03:38;;;;;;;22.98;8.33;;;;;;;;;;1806465;79;21113;-79
2021/01/19 04:06:06;;;;;;;30.92;12.37;;;;;;;;;;1794029;79;21110;-80
2021/01/19 04:08:32;;;;;;;29.77;13.83;;;;;;;;;;1818985;79;21162;-80
2021/01/19 04:10:59;;;;;;;33.95;13.93;;;;;;;;;;1819179;79;21137;-80
2021/01/19 04:13:25;;;;;;;25.75;10.75;;;;;;;;;;1813729;79;21116;-80
2021/01/19 04:15:52;;;;;;;40.20;16.48;;;;;;;;;;1787038;79;21173;-80
2021/01/19 04:18:19;;;;;;;31.33;14.95;;;;;;;;;;1787342;79;21130;-82
2021/01/19 04:20:45;;;;;;;37.17;14.05;;;;;;;;;;1786930;80;21172;-80
2021/01/19 04:23:14;;;;;;;35.15;13.30;;;;;;;;;;1786931;80;21162;-81
2021/01/19 04:25:39;;;;;;;29.10;14.25;;;;;;;;;;1787488;79;21082;-81
2021/01/19 04:28:06;;;;;;;24.12;10.98;;;;;;;;;;1787172;80;21192;-81
2021/01/19 04:30:32;;;;;;;28.50;13.55;;;;;;;;;;1786509;79;21141;-79
2021/01/19 04:32:58;;;;;;;26.77;13.03;;;;;;;;;;1814234;79;21123;-80
2021/01/19 04:35:24;;;;;;;31.55;11.73;;;;;;;;;;1812195;79;21118;-80
2021/01/19 04:37:50;;;;;;;30.68;13.55;;;;;;;;;;1814341;79;21126;-79
2021/01/19 04:40:16;;;;;;;30.23;12.68;;;;;;;;;;1814063;79;21577;-79
2021/01/19 04:42:43;;;;;;;32.35;13.72;;;;;;;;;;1814196;79;21120;-83
2021/01/19 04:45:17;;;;;;;27.20;12.50;;;;;;;;;;1807761;79;21124;-81
2021/01/19 04:47:43;;;;;;;55.50;13.75;;;;;;;;;;1787261;79;21124;-81
2021/01/19 04:50:10;;;;;;;30.25;13.25;;;;;;;;;;1787107;80;21144;-80
2021/01/19 04:52:43;;;;;;;33.13;13.83;;;;;;;;;;1786934;80;21200;-79
2021/01/19 04:55:13;;;;;;;29.92;12.23;;;;;;;;;;1787575;79;21161;-80
2021/01/19 04:57:39;;;;;;;34.33;14.55;;;;;;;;;;1788368;79;21509;-82
2021/01/19 05:00:09;;;;;;;27.37;12.88;;;;;;;;;;1787169;79;21161;-82
2021/01/19 05:02:56;;;;;;;32.38;15.15;;;;;;;;;;1786944;80;21128;-81
2021/01/19 05:05:24;;;;;;;32.65;12.03;;;;;;;;;;1786785;80;21141;-81
2021/01/19 05:08:01;;;;;;;24.82;11.18;;;;;;;;;;1788630;79;21114;-81
2021/01/19 05:10:31;;;;;;;15.55;8.10;;;;;;;;;;1786033;80;21173;-82
2021/01/19 05:12:59;;;;;;;40.00;12.95;;;;;;;;;;1786772;80;21133;-81
2021/01/19 05:15:26;;;;;;;25.23;11.00;;;;;;;;;;1787348;79;21145;-81
2021/01/19 05:17:54;;;;;;;37.58;14.18;;;;;;;;;;1805426;79;21105;-81
2021/01/19 05:20:23;;;;;;;29.25;13.45;;;;;;;;;;1787505;79;21157;-82
2021/01/19 05:22:54;;;;;;;29.45;15.48;;;;;;;;;;1818937;79;21573;-80
2021/01/19 05:25:23;;;;;;;28.55;11.48;;;;;;;;;;1819118;79;21137;-81
2021/01/19 05:27:49;;;;;;;31.70;14.85;;;;;;;;;;1816450;79;21141;-81
2021/01/19 05:30:16;;;;;;;36.30;12.60;;;;;;;;;;1776159;80;21160;-82
2021/01/19 05:32:43;;;;;;;34.08;14.28;;;;;;;;;;1789336;80;21576;-81
2021/01/19 05:35:11;;;;;;;35.30;14.33;;;;;;;;;;1789257;80;21289;-81
2021/01/19 05:37:37;;;;;;;24.67;9.80;;;;;;;;;;1786624;80;21524;-81
2021/01/19 05:40:04;;;;;;;21.50;10.75;;;;;;;;;;1789501;79;21118;-81
2021/01/19 05:42:31;;;;;;;22.30;10.08;;;;;;;;;;1786988;80;21158;-81
2021/01/19 05:44:59;;;;;;;23.27;9.05;;;;;;;;;;1786965;80;21137;-81
2021/01/19 05:47:27;;;;;;;24.67;10.80;;;;;;;;;;1785746;80;21146;-82
2021/01/19 05:49:53;;;;;;;26.82;11.80;;;;;;;;;;1812385;79;21113;-82
2021/01/19 05:52:19;;;;;;;31.62;13.62;;;;;;;;;;1819207;79;21569;-83
2021/01/19 05:54:46;;;;;;;22.50;9.98;;;;;;;;;;1818710;79;21140;-83
2021/01/19 05:57:16;;;;;;;29.15;13.95;;;;;;;;;;1815129;79;21125;-81
2021/01/19 05:59:43;;;;;;;35.60;14.18;;;;;;;;;;1802256;79;21525;-81
2021/01/19 06:02:18;;;;;;;37.50;14.68;;;;;;;;;;1793743;79;21152;-81
2021/01/19 06:04:48;;;;;;;18.92;6.67;;;;;;;;;;1793249;79;21109;-80
2021/01/19 06:07:24;;;;;;;16.60;9.23;;;;;;;;;;1786954;80;21129;-80
2021/01/19 06:09:52;;;;;;;5.75;4.92;;;;;;;;;;1786646;80;21770;-81
2021/01/19 06:12:18;;;;;;;7.03;4.97;;;;;;;;;;1792161;79;21120;-81
2021/01/19 06:14:45;;;;;;;23.10;9.95;;;;;;;;;;1792003;80;21593;-82
2021/01/19 06:17:14;;;;;;;15.72;7.03;;;;;;;;;;1792447;80;21148;-82
2021/01/19 06:19:42;;;;;;;11.10;6.70;;;;;;;;;;1792306;80;21149;-81
2021/01/19 06:22:13;;;;;;;17.00;8.48;;;;;;;;;;1791899;79;21122;-84
2021/01/19 06:24:40;;;;;;;16.65;10.18;;;;;;;;;;1791460;80;21141;-83
2021/01/19 06:27:12;;;;;;;14.43;7.83;;;;;;;;;;1789321;79;21551;-82
2021/01/19 06:29:37;;;;;;;22.80;10.58;;;;;;;;;;1788848;80;21694;-82
2021/01/19 06:32:05;;;;;;;16.57;7.25;;;;;;;;;;1792681;79;21136;-82
2021/01/19 06:34:33;;;;;;;20.88;9.63;;;;;;;;;;1817169;79;21205;-82
2021/01/19 06:36:59;;;;;;;14.33;8.58;;;;;;;;;;1819207;79;21145;-85
2021/01/19 06:39:27;;;;;;;16.27;7.15;;;;;;;;;;1802537;79;21097;-86
2021/01/19 06:41:56;;;;;;;20.92;7.55;;;;;;;;;;1792971;79;21271;-87
2021/01/19 06:44:22;;;;;;;10.75;5.55;;;;;;;;;;1792269;80;21291;-85
2021/01/19 06:46:48;;;;;;;20.27;9.60;;;;;;;;;;1792237;80;21288;-80
2021/01/19 06:49:14;;;;;;;31.60;14.83;;;;;;;;;;1790314;80;21541;-81
2021/01/19 06:51:41;;;;;;;16.27;7.03;;;;;;;;;;1786896;80;21546;-83
2021/01/19 06:54:09;;;;;;;16.27;8.83;;;;;;;;;;1788727;79;21557;-81
2021/01/19 06:56:38;;;;;;;15.40;9.40;;;;;;;;;;1787312;80;21122;-82
2021/01/19 06:59:07;;;;;;;10.05;5.25;;;;;;;;;;1756281;80;21169;-81
2021/01/19 07:01:34;;;;;;;16.62;6.58;;;;;;;;;;1792958;79;21137;-78
2021/01/19 07:04:02;;;;;;;11.08;5.67;;;;;;;;;;1790539;80;21145;-76
2021/01/19 07:06:30;;;;;;;33.75;13.13;;;;;;;;;;1792135;80;21153;-77
2021/01/19 07:09:07;;;;;;;29.90;11.83;;;;;;;;;;1790419;80;21161;-75
2021/01/19 07:11:38;;;;;;;39.08;12.70;;;;;;;;;;1788570;79;21117;-75
2021/01/19 07:14:11;;;;;;;27.15;14.38;;;;;;;;;;1787579;79;21141;-79
2021/01/19 07:16:48;;;;;;;38.98;16.82;;;;;;;;;;1806894;79;21137;-76
2021/01/19 07:19:20;;;;;;;33.30;14.93;;;;;;;;;;1786952;79;21109;-77
2021/01/19 07:22:03;;;;;;;35.17;13.90;;;;;;;;;;1787095;80;21580;-77
2021/01/19 07:24:30;;;;;;;36.73;14.15;;;;;;;;;;1795265;79;21147;-76
2021/01/19 07:27:00;;;;;;;33.63;15.55;;;;;;;;;;1793296;79;21133;-78
2021/01/19 07:29:26;;;;;;;49.73;20.17;;;;;;;;;;1790333;79;21150;-79
2021/01/19 07:31:53;;;;;;;56.20;23.70;;;;;;;;;;1811593;78;21602;-77
2021/01/19 07:34:19;;;;;;;59.15;23.85;;;;;;;;;;1806637;78;21152;-77
2021/01/19 07:36:52;;;;;;;52.53;25.12;;;;;;;;;;1798933;79;21109;-77
2021/01/19 07:39:20;;;;;;;60.48;25.00;;;;;;;;;;1799005;78;21157;-77
2021/01/19 07:41:46;;;;;;;65.45;25.10;;;;;;;;;;1771229;80;21524;-77
2021/01/19 07:44:21;;;;;;;60.98;25.02;;;;;;;;;;1823761;78;21132;-76
2021/01/19 07:46:47;;;;;;;54.98;24.15;;;;;;;;;;1822918;78;21109;-77
2021/01/19 07:49:14;;;;;;;47.67;20.37;;;;;;;;;;1815260;79;21142;-78
2021/01/19 07:51:45;;;;;;;48.50;23.22;;;;;;;;;;1824296;79;21191;-76
2021/01/19 07:54:11;;;;;;;52.45;24.25;;;;;;;;;;1820920;79;21145;-79
2021/01/19 07:56:38;;;;;;;94.83;38.70;;;;;;;;;;1792321;79;21155;-76
2021/01/19 07:59:06;;;;;;;106.83;40.52;;;;;;;;;;1816797;79;21148;-77
2021/01/19 08:01:34;;;;;;;59.93;25.72;;;;;;;;;;1819688;79;21137;-76
2021/01/19 08:04:14;;;;;;;72.85;29.65;;;;;;;;;;1791433;78;21180;-82
2021/01/19 08:06:54;;;;;;;111.65;42.58;;;;;;;;;;1784063;79;21105;-83
2021/01/19 08:09:22;;;;;;;84.47;39.33;;;;;;;;;;1792327;79;21161;-81
2021/01/19 08:11:50;;;;;;;82.00;35.35;;;;;;;;;;1824501;79;21130;-82
2021/01/19 08:14:16;;;;;;;70.20;30.48;;;;;;;;;;1822395;79;21243;-84
2021/01/19 08:16:44;;;;;;;50.30;23.55;;;;;;;;;;1824868;79;21132;-84
2021/01/19 08:19:11;;;;;;;40.78;18.37;;;;;;;;;;1786620;79;21169;-82
2021/01/19 08:21:39;;;;;;;66.97;28.47;;;;;;;;;;1786456;80;21125;-83
2021/01/19 08:24:06;;;;;;;78.85;31.02;;;;;;;;;;1786534;79;21145;-78
2021/01/19 08:26:33;;;;;;;73.67;31.62;;;;;;;;;;1820510;79;21116;-78
2021/01/19 08:28:59;;;;;;;97.37;35.10;;;;;;;;;;1822167;78;21118;-77
2021/01/19 08:31:29;;;;;;;90.25;34.92;;;;;;;;;;1816990;79;21130;-79
2021/01/19 08:33:59;;;;;;;80.50;34.60;;;;;;;;;;1813522;79;21497;-78
2021/01/19 08:36:25;;;;;;;87.72;32.93;;;;;;;;;;1805253;79;21097;-77
2021/01/19 08:38:51;;;;;;;91.85;39.18;;;;;;;;;;1786895;80;21105;-78
2021/01/19 08:41:18;;;;;;;90.00;35.90;;;;;;;;;;1808100;79;21094;-78
2021/01/19 08:43:54;;;;;;;73.02;29.48;;;;;;;;;;1794535;79;21163;-78
2021/01/19 08:46:19;;;;;;;72.27;28.83;;;;;;;;;;1790165;79;21129;-77
2021/01/19 08:48:46;;;;;;;79.72;33.23;;;;;;;;;;1803064;79;21179;-79
2021/01/19 08:51:25;;;;;;;69.58;30.43;;;;;;;;;;1810690;79;21197;-78
2021/01/19 08:53:52;;;;;;;87.67;35.73;;;;;;;;;;1786773;80;21149;-78
2021/01/19 08:56:25;;;;;;;74.58;30.60;;;;;;;;;;1786775;79;21294;-78
2021/01/19 08:58:52;;;;;;;78.12;34.60;;;;;;;;;;1786970;80;21165;-77
2021/01/19 09:01:18;;;;;;;81.25;31.30;;;;;;;;;;1786374;79;21184;-79
2021/01/19 09:03:59;;;;;;;76.95;32.78;;;;;;;;;;1767767;81;21128;-79
2021/01/19 09:06:23;;;;;;;60.48;26.25;;;;;;;;;;1767529;81;21129;-79
2021/01/19 09:08:56;;;;;;;78.15;31.93;;;;;;;;;;1768016;80;21556;-79
2021/01/19 09:11:19;;;;;;;70.60;30.57;;;;;;;;;;1767413;80;21140;-79
2021/01/19 09:13:46;;;;;;;83.42;36.03;;;;;;;;;;1736549;81;21144;-78
2021/01/19 09:16:12;;;;;;;87.92;37.05;;;;;;;;;;1767882;81;21179;-78
2021/01/19 09:18:39;;;;;;;87.47;34.60;;;;;;;;;;1768025;80;21552;-79
2021/01/19 09:21:10;;;;;;;83.00;34.40;;;;;;;;;;1808530;79;21110;-80
2021/01/19 09:23:37;;;;;;;76.47;31.48;;;;;;;;;;1786845;80;21106;-78
2021/01/19 09:26:04;;;;;;;55.52;24.40;;;;;;;;;;1786765;80;21583;-77
2021/01/19 09:28:32;;;;;;;95.35;40.95;;;;;;;;;;1786922;80;21565;-79
2021/01/19 09:31:00;;;;;;;89.92;37.58;;;;;;;;;;1787074;80;21119;-77
2021/01/19 09:33:28;;;;;;;71.67;26.80;;;;;;;;;;1784636;79;21170;-77
2021/01/19 09:35:54;;;;;;;68.70;30.17;;;;;;;;;;1786547;80;21122;-78
2021/01/19 09:38:24;;;;;;;77.50;34.85;;;;;;;;;;1786795;80;21150;-78
2021/01/19 09:40:51;;;;;;;77.72;30.40;;;;;;;;;;1786708;80;21126;-79
2021/01/19 09:43:21;;;;;;;85.80;36.28;;;;;;;;;;1786839;80;21153;-79
2021/01/19 09:45:49;;;;;;;78.90;33.67;;;;;;;;;;1786747;80;21632;-83
2021/01/19 09:48:16;;;;;;;62.10;24.57;;;;;;;;;;1791706;80;21126;-80
2021/01/19 09:50:42;;;;;;;53.40;20.68;;;;;;;;;;1772856;80;21160;-80
2021/01/19 09:53:08;;;;;;;67.35;27.00;;;;;;;;;;1794761;79;21102;-79
2021/01/19 09:55:37;;;;;;;58.13;22.52;;;;;;;;;;1800079;79;21105;-77
2021/01/19 09:58:04;;;;;;;48.45;20.12;;;;;;;;;;1788856;80;21076;-79
2021/01/19 10:00:31;;;;;;;54.85;22.67;;;;;;;;;;1790985;79;21136;-79
2021/01/19 10:03:10;;;;;;;52.95;21.87;;;;;;;;;;1819233;79;21197;-79
2021/01/19 10:05:37;;;;;;;51.70;20.85;;;;;;;;;;1818850;79;21145;-82
2021/01/19 10:08:03;;;;;;;43.65;20.08;;;;;;;;;;1787320;79;21129;-79
2021/01/19 10:10:33;;;;;;;13.53;7.60;;;;;;;;;;1786659;80;21138;-78
2021/01/19 10:13:02;;;;;;;48.20;20.60;;;;;;;;;;1805992;79;21109;-78
2021/01/19 10:15:29;;;;;;;55.78;24.07;;;;;;;;;;1786870;80;21213;-78
2021/01/19 10:17:58;;;;;;;59.67;31.27;;;;;;;;;;1756258;80;21125;-78
2021/01/19 10:20:32;;;;;;;52.95;23.18;;;;;;;;;;1787081;80;21556;-78
2021/01/19 10:22:59;;;;;;;51.40;20.95;;;;;;;;;;1786697;80;21691;-76
2021/01/19 10:25:26;;;;;;;53.98;21.68;;;;;;;;;;1786715;79;21572;-77
2021/01/19 10:27:54;;;;;;;60.70;26.80;;;;;;;;;;1792565;79;21149;-79
2021/01/19 10:30:20;;;;;;;51.60;20.52;;;;;;;;;;1776447;79;21140;-78
2021/01/19 10:32:49;;;;;;;57.75;21.23;;;;;;;;;;1776526;79;21114;-80
2021/01/19 10:35:39;;;;;;;;;;;;;;;;;;;;;
2021/01/19 10:38:01;;;;;;;64.50;27.25;;;;;;;;;;1783034;80;21128;-78
2021/01/19 10:40:28;;;;;;;37.95;17.95;;;;;;;;;;1799122;79;21109;-79
2021/01/19 10:42:56;;;;;;;54.50;21.75;;;;;;;;;;1754063;80;21107;-79
2021/01/19 10:45:27;;;;;;;52.83;22.80;;;;;;;;;;1785726;79;21133;-76
2021/01/19 10:47:58;;;;;;;51.42;21.85;;;;;;;;;;1805059;79;21110;-77
2021/01/19 10:50:30;;;;;;;63.90;22.77;;;;;;;;;;1778940;79;21141;-77
2021/01/19 10:53:02;;;;;;;54.58;21.25;;;;;;;;;;1767965;79;21712;-78
2021/01/19 10:55:34;;;;;;;43.50;17.52;;;;;;;;;;1804391;79;21105;-78
2021/01/19 10:58:02;;;;;;;45.35;18.87;;;;;;;;;;1802708;79;21548;-77
2021/01/19 11:00:37;;;;;;;70.70;30.95;;;;;;;;;;1808295;79;22138;-77
2021/01/19 11:03:11;;;;;;;59.73;24.82;;;;;;;;;;1818698;79;21195;-77
2021/01/19 11:05:44;;;;;;;44.63;18.65;;;;;;;;;;1810134;79;21565;-78
2021/01/19 11:08:41;;;;;;;56.15;20.80;;;;;;;;;;1768316;79;21280;-77
2021/01/19 11:11:11;;;;;;;34.92;16.07;;;;;;;;;;1767916;80;21160;-77
2021/01/19 11:13:45;;;;;;;64.35;26.20;;;;;;;;;;1794334;79;21552;-78
2021/01/19 11:16:45;;;;;;;;;;;;;;;;;;;;;
2021/01/19 11:19:17;;;;;;;54.58;21.07;;;;;;;;;;1805994;79;21561;-77
2021/01/19 11:22:10;;;;;;;42.55;17.80;;;;;;;;;;1734243;80;21125;-77
2021/01/19 11:24:55;;;;;;;52.17;25.57;;;;;;;;;;1749073;82;21165;-78
2021/01/19 11:33:41;;;;;;;38.40;17.37;;;;;;;;;;1711623;82;21604;-78
2021/01/19 11:36:17;;;;;;;40.00;15.78;;;;;;;;;;1690513;83;21128;-77
2021/01/19 11:39:05;;;;;;;41.60;16.62;;;;;;;;;;1790749;79;21125;-78
2021/01/19 11:41:57;;;;;;;41.25;16.77;;;;;;;;;;1767742;79;21098;-78
2021/01/19 11:44:42;;;;;;;39.92;16.32;;;;;;;;;;1766440;79;21121;-77
2021/01/19 11:47:09;;;;;;;40.08;18.42;;;;;;;;;;1818874;79;21235;-78
2021/01/19 11:49:43;;;;;;;52.90;18.45;;;;;;;;;;1819293;79;21102;-79
2021/01/19 11:52:13;;;;;;;112.90;48.92;;;;;;;;;;1789785;79;21097;-77
2021/01/19 11:54:43;;;;;;;23.12;11.03;;;;;;;;;;1816705;79;21110;-78
2021/01/19 11:57:13;;;;;;;43.23;20.23;;;;;;;;;;1811527;79;21105;-78
2021/01/19 11:59:41;;;;;;;31.73;13.62;;;;;;;;;;1807819;79;21552;-78
2021/01/19 12:05:43;;;;;;;;;;;;;;;;;;;;;
2021/01/19 12:21:59;;;;;;;52.33;23.90;;;;;;;;;;1806781;77;22383;-76
2021/01/19 12:24:25;;;;;;;34.15;14.18;;;;;;;;;;1761866;79;21125;-78
2021/01/19 12:26:53;;;;;;;39.15;16.45;;;;;;;;;;1748654;80;21214;-77
2021/01/19 12:29:19;;;;;;;39.50;16.40;;;;;;;;;;1750690;79;21166;-77
2021/01/19 12:31:48;;;;;;;39.10;15.23;;;;;;;;;;1745151;82;21593;-78
2021/01/19 12:34:14;;;;;;;40.25;20.27;;;;;;;;;;1736772;81;21245;-78
2021/01/19 12:36:41;;;;;;;51.50;24.32;;;;;;;;;;1724744;82;21106;-78
2021/01/19 12:39:12;;;;;;;54.70;25.32;;;;;;;;;;1761061;80;21150;-79
2021/01/19 12:41:43;;;;;;;61.35;23.60;;;;;;;;;;1738626;81;21176;-80
2021/01/19 12:44:12;;;;;;;55.60;26.23;;;;;;;;;;1700448;82;21164;-78
2021/01/19 12:46:38;;;;;;;84.47;40.83;;;;;;;;;;1733055;81;21142;-76
2021/01/19 12:49:05;;;;;;;115.10;49.60;;;;;;;;;;1739125;81;21608;-75
2021/01/19 12:51:38;;;;;;;41.68;20.50;;;;;;;;;;1706175;82;21524;-75
2021/01/19 12:54:12;;;;;;;40.75;16.80;;;;;;;;;;1707315;82;21105;-74
2021/01/19 12:56:38;;;;;;;40.75;17.77;;;;;;;;;;1711741;82;21558;-75
2021/01/19 12:59:05;;;;;;;46.23;17.52;;;;;;;;;;1714379;82;21220;-75
2021/01/19 13:01:31;;;;;;;26.48;12.80;;;;;;;;;;1736275;81;21097;-75
2021/01/19 13:04:02;;;;;;;36.88;18.32;;;;;;;;;;1707446;82;21610;-76
2021/01/19 13:06:29;;;;;;;36.83;14.50;;;;;;;;;;1712008;81;21657;-76
2021/01/19 13:08:55;;;;;;;46.63;19.90;;;;;;;;;;1712575;81;21185;-77
2021/01/19 13:11:21;;;;;;;47.90;21.95;;;;;;;;;;1711742;81;21130;-76
2021/01/19 13:13:48;;;;;;;44.77;21.82;;;;;;;;;;1740676;81;21190;-76
2021/01/19 13:16:15;;;;;;;43.33;21.45;;;;;;;;;;1728117;81;21152;-75
2021/01/19 13:18:41;;;;;;;64.12;28.12;;;;;;;;;;1718971;81;21117;-75
2021/01/19 13:21:07;;;;;;;41.02;20.17;;;;;;;;;;1734390;81;21114;-78
2021/01/19 13:23:33;;;;;;;40.58;16.35;;;;;;;;;;1740523;81;21148;-78
2021/01/19 13:26:00;;;;;;;40.08;17.10;;;;;;;;;;1741220;82;21273;-77
2021/01/19 13:28:26;;;;;;;42.23;19.17;;;;;;;;;;1741958;81;21613;-77
2021/01/19 13:30:53;;;;;;;58.30;25.48;;;;;;;;;;1744498;81;21137;-78
2021/01/19 13:33:19;;;;;;;41.83;19.32;;;;;;;;;;1739791;81;21158;-78
2021/01/19 13:35:45;;;;;;;53.23;22.75;;;;;;;;;;1724110;82;21718;-78
2021/01/19 13:38:11;;;;;;;31.50;12.45;;;;;;;;;;1735306;81;21137;-79
2021/01/19 13:40:38;;;;;;;33.80;13.95;;;;;;;;;;1729604;81;21655;-79
2021/01/19 13:43:05;;;;;;;37.50;16.85;;;;;;;;;;1737558;81;21157;-79
2021/01/19 13:45:31;;;;;;;43.25;18.57;;;;;;;;;;1704871;81;21625;-79
2021/01/19 13:47:57;;;;;;;42.98;18.02;;;;;;;;;;1738897;81;21142;-79
2021/01/19 13:50:25;;;;;;;35.80;17.60;;;;;;;;;;1736013;81;21125;-79
2021/01/19 13:52:51;;;;;;;38.70;16.55;;;;;;;;;;1698603;82;21144;-81
2021/01/19 13:55:18;;;;;;;36.20;15.25;;;;;;;;;;1703344;83;21161;-80
2021/01/19 13:57:44;;;;;;;35.40;14.75;;;;;;;;;;1706083;82;21584;-79
2021/01/19 14:00:10;;;;;;;38.55;14.83;;;;;;;;;;1707128;82;21605;-80
2021/01/19 14:02:37;;;;;;;40.03;20.52;;;;;;;;;;1688736;84;21271;-80
2021/01/19 14:05:04;;;;;;;39.60;17.02;;;;;;;;;;1742324;80;21225;-79
2021/01/19 14:07:30;;;;;;;36.38;16.85;;;;;;;;;;1709960;81;21185;-80
2021/01/19 14:09:56;;;;;;;63.90;28.32;;;;;;;;;;1673942;83;21557;-79
2021/01/19 14:12:23;;;;;;;34.50;17.73;;;;;;;;;;1667068;83;21173;-80
2021/01/19 14:14:50;;;;;;;56.48;21.62;;;;;;;;;;1708285;83;21177;-79
2021/01/19 14:17:20;;;;;;;26.48;11.30;;;;;;;;;;1714857;83;21596;-80
2021/01/19 14:19:46;;;;;;;39.83;16.77;;;;;;;;;;1738658;81;21957;-80
2021/01/19 14:22:13;;;;;;;39.35;16.55;;;;;;;;;;1768604;79;21137;-80
2021/01/19 14:24:39;;;;;;;39.75;16.23;;;;;;;;;;1759862;78;21581;-79
2021/01/19 14:27:07;;;;;;;43.25;18.90;;;;;;;;;;1774612;79;21164;-80
2021/01/19 14:29:33;;;;;;;46.83;20.90;;;;;;;;;;1766287;78;21608;-80
2021/01/19 14:32:00;;;;;;;36.85;13.78;;;;;;;;;;1773305;80;21174;-78
2021/01/19 14:34:26;;;;;;;38.38;16.48;;;;;;;;;;1731288;81;21167;-81
2021/01/19 14:36:55;;;;;;;37.95;14.73;;;;;;;;;;1707275;81;21109;-80
2021/01/19 14:39:23;;;;;;;35.78;16.60;;;;;;;;;;1715915;82;21627;-80
2021/01/19 14:41:49;;;;;;;39.23;16.35;;;;;;;;;;1750232;81;21153;-79
2021/01/19 14:44:15;;;;;;;34.63;12.90;;;;;;;;;;1735963;80;21257;-83
2021/01/19 14:46:42;;;;;;;22.90;11.33;;;;;;;;;;1768026;79;21134;-85
2021/01/19 14:49:13;;;;;;;37.10;15.70;;;;;;;;;;1744628;79;21177;-86
2021/01/19 14:51:39;;;;;;;32.75;16.60;;;;;;;;;;1738284;81;21138;-86
2021/01/19 14:54:21;;;;;;;36.50;15.72;;;;;;;;;;1727339;80;21306;-84